sensor_id;sensor_type;location;lat;lon;timestamp;P1;durP1;ratioP1;P2;durP2;ratioP2
41532;SDS011;27262;-35.248;149.138;2023-02-11T00:01:41;2.85;;;2.38;;
41532;SDS011;27262;-35.248;149.138;2023-02-11T00:04:11;3.03;;;2.00;;
41532;SDS011;27262;-35.248;149.138;2023-02-11T00:06:41;4.18;;;2.30;;
41532;SDS011;27262;-35.248;149.138;2023-02-11T00:09:12;2.65;;;2.45;;
41532;SDS011;27262;-35.248;149.138;2023-02-11T00:11:42;2.53;;;2.30;;
41532;SDS011;27262;-35.248;149.138;2023-02-11T00:14:12;3.95;;;2.42;;
41532;SDS011;27262;-35.248;149.138;2023-02-11T00:16:43;5.15;;;2.90;;
41532;SDS011;27262;-35.248;149.138;2023-02-11T00:19:13;3.50;;;2.05;;
41532;SDS011;27262;-35.248;149.138;2023-02-11T00:21:43;3.15;;;2.38;;
41532;SDS011;27262;-35.248;149.138;2023-02-11T00:24:14;3.50;;;2.80;;
41532;SDS011;27262;-35.248;149.138;2023-02-11T00:26:44;2.75;;;2.55;;
41532;SDS011;27262;-35.248;149.138;2023-02-11T00:29:15;3.78;;;2.75;;
41532;SDS011;27262;-35.248;149.138;2023-02-11T00:31:45;3.15;;;2.75;;
41532;SDS011;27262;-35.248;149.138;2023-02-11T00:34:16;2.63;;;2.42;;
41532;SDS011;27262;-35.248;149.138;2023-02-11T00:36:46;3.70;;;2.70;;
41532;SDS011;27262;-35.248;149.138;2023-02-11T00:39:16;2.88;;;2.60;;
41532;SDS011;27262;-35.248;149.138;2023-02-11T00:41:47;3.53;;;2.03;;
41532;SDS011;27262;-35.248;149.138;2023-02-11T00:44:17;3.67;;;2.22;;
41532;SDS011;27262;-35.248;149.138;2023-02-11T00:46:47;2.95;;;2.38;;
41532;SDS011;27262;-35.248;149.138;2023-02-11T00:49:18;3.17;;;2.42;;
41532;SDS011;27262;-35.248;149.138;2023-02-11T00:51:48;3.03;;;2.80;;
41532;SDS011;27262;-35.248;149.138;2023-02-11T00:54:19;4.15;;;2.80;;
41532;SDS011;27262;-35.248;149.138;2023-02-11T00:56:49;3.30;;;2.75;;
41532;SDS011;27262;-35.248;149.138;2023-02-11T00:59:19;7.00;;;2.85;;
41532;SDS011;27262;-35.248;149.138;2023-02-11T01:01:50;2.95;;;2.67;;
41532;SDS011;27262;-35.248;149.138;2023-02-11T01:04:21;4.47;;;2.40;;
41532;SDS011;27262;-35.248;149.138;2023-02-11T01:06:51;4.15;;;2.60;;
41532;SDS011;27262;-35.248;149.138;2023-02-11T01:09:21;2.50;;;2.08;;
41532;SDS011;27262;-35.248;149.138;2023-02-11T01:11:52;2.53;;;2.10;;
41532;SDS011;27262;-35.248;149.138;2023-02-11T01:14:22;2.63;;;2.42;;
41532;SDS011;27262;-35.248;149.138;2023-02-11T01:16:52;3.88;;;2.40;;
41532;SDS011;27262;-35.248;149.138;2023-02-11T01:19:22;2.70;;;2.35;;
41532;SDS011;27262;-35.248;149.138;2023-02-11T01:21:53;3.42;;;1.98;;
41532;SDS011;27262;-35.248;149.138;2023-02-11T01:24:23;2.00;;;1.65;;
41532;SDS011;27262;-35.248;149.138;2023-02-11T01:26:53;3.38;;;1.92;;
41532;SDS011;27262;-35.248;149.138;2023-02-11T01:29:24;4.70;;;1.70;;
41532;SDS011;27262;-35.248;149.138;2023-02-11T01:31:54;5.05;;;1.83;;
41532;SDS011;27262;-35.248;149.138;2023-02-11T01:34:24;4.65;;;2.50;;
41532;SDS011;27262;-35.248;149.138;2023-02-11T01:36:58;4.70;;;2.05;;
41532;SDS011;27262;-35.248;149.138;2023-02-11T01:39:31;3.60;;;2.10;;
41532;SDS011;27262;-35.248;149.138;2023-02-11T01:42:02;3.42;;;1.90;;
41532;SDS011;27262;-35.248;149.138;2023-02-11T01:44:34;2.35;;;1.83;;
41532;SDS011;27262;-35.248;149.138;2023-02-11T01:47:06;1.50;;;1.40;;
41532;SDS011;27262;-35.248;149.138;2023-02-11T01:49:38;1.50;;;1.30;;
41532;SDS011;27262;-35.248;149.138;2023-02-11T01:52:18;3.20;;;1.70;;
41532;SDS011;27262;-35.248;149.138;2023-02-11T01:54:57;2.50;;;1.58;;
41532;SDS011;27262;-35.248;149.138;2023-02-11T01:57:50;2.65;;;1.75;;
41532;SDS011;27262;-35.248;149.138;2023-02-11T02:00:33;2.10;;;1.90;;
41532;SDS011;27262;-35.248;149.138;2023-02-11T02:05:52;3.00;;;1.55;;
41532;SDS011;27262;-35.248;149.138;2023-02-11T02:11:36;1.55;;;1.35;;
41532;SDS011;27262;-35.248;149.138;2023-02-11T02:14:06;4.43;;;1.30;;
41532;SDS011;27262;-35.248;149.138;2023-02-11T02:16:36;1.23;;;1.13;;
41532;SDS011;27262;-35.248;149.138;2023-02-11T02:33:36;3.88;;;1.08;;
41532;SDS011;27262;-35.248;149.138;2023-02-11T02:36:18;1.52;;;0.95;;
41532;SDS011;27262;-35.248;149.138;2023-02-11T02:41:32;4.78;;;0.88;;
41532;SDS011;27262;-35.248;149.138;2023-02-11T02:44:04;3.53;;;1.15;;
41532;SDS011;27262;-35.248;149.138;2023-02-11T02:46:36;3.03;;;0.93;;
41532;SDS011;27262;-35.248;149.138;2023-02-11T02:49:11;1.25;;;1.08;;
41532;SDS011;27262;-35.248;149.138;2023-02-11T03:08:23;4.70;;;1.40;;
41532;SDS011;27262;-35.248;149.138;2023-02-11T03:11:07;3.22;;;0.95;;
41532;SDS011;27262;-35.248;149.138;2023-02-11T03:13:40;4.38;;;1.27;;
41532;SDS011;27262;-35.248;149.138;2023-02-11T03:16:18;2.67;;;0.88;;
41532;SDS011;27262;-35.248;149.138;2023-02-11T03:19:04;3.15;;;1.00;;
41532;SDS011;27262;-35.248;149.138;2023-02-11T03:21:39;3.47;;;1.10;;
41532;SDS011;27262;-35.248;149.138;2023-02-11T03:24:23;7.40;;;1.02;;
41532;SDS011;27262;-35.248;149.138;2023-02-11T03:27:00;8.27;;;1.58;;
41532;SDS011;27262;-35.248;149.138;2023-02-11T03:32:26;4.18;;;1.20;;
41532;SDS011;27262;-35.248;149.138;2023-02-11T03:35:10;5.93;;;1.02;;
41532;SDS011;27262;-35.248;149.138;2023-02-11T03:37:51;6.38;;;1.05;;
41532;SDS011;27262;-35.248;149.138;2023-02-11T03:40:34;5.03;;;1.00;;
41532;SDS011;27262;-35.248;149.138;2023-02-11T03:43:11;5.47;;;1.20;;
41532;SDS011;27262;-35.248;149.138;2023-02-11T03:45:49;6.70;;;1.40;;
41532;SDS011;27262;-35.248;149.138;2023-02-11T03:48:22;6.28;;;1.23;;
41532;SDS011;27262;-35.248;149.138;2023-02-11T03:50:55;5.43;;;1.00;;
41532;SDS011;27262;-35.248;149.138;2023-02-11T03:53:29;5.50;;;0.98;;
41532;SDS011;27262;-35.248;149.138;2023-02-11T03:56:00;1.88;;;1.00;;
41532;SDS011;27262;-35.248;149.138;2023-02-11T03:58:34;6.93;;;1.10;;
41532;SDS011;27262;-35.248;149.138;2023-02-11T04:01:05;4.45;;;1.00;;
41532;SDS011;27262;-35.248;149.138;2023-02-11T04:03:37;1.85;;;1.00;;
41532;SDS011;27262;-35.248;149.138;2023-02-11T04:06:07;2.45;;;1.08;;
41532;SDS011;27262;-35.248;149.138;2023-02-11T04:08:38;4.32;;;0.98;;
41532;SDS011;27262;-35.248;149.138;2023-02-11T04:11:08;1.95;;;0.80;;
41532;SDS011;27262;-35.248;149.138;2023-02-11T04:13:39;5.95;;;1.20;;
41532;SDS011;27262;-35.248;149.138;2023-02-11T04:16:09;1.70;;;0.88;;
41532;SDS011;27262;-35.248;149.138;2023-02-11T04:18:39;4.88;;;1.02;;
41532;SDS011;27262;-35.248;149.138;2023-02-11T04:21:10;3.08;;;0.88;;
41532;SDS011;27262;-35.248;149.138;2023-02-11T04:23:40;3.90;;;1.25;;
41532;SDS011;27262;-35.248;149.138;2023-02-11T04:26:11;3.15;;;0.93;;
41532;SDS011;27262;-35.248;149.138;2023-02-11T04:28:41;6.40;;;0.80;;
41532;SDS011;27262;-35.248;149.138;2023-02-11T04:31:11;4.35;;;0.93;;
41532;SDS011;27262;-35.248;149.138;2023-02-11T04:33:42;5.50;;;1.00;;
41532;SDS011;27262;-35.248;149.138;2023-02-11T04:36:12;5.28;;;0.93;;
41532;SDS011;27262;-35.248;149.138;2023-02-11T04:38:43;4.90;;;1.00;;
41532;SDS011;27262;-35.248;149.138;2023-02-11T04:41:13;3.45;;;0.82;;
41532;SDS011;27262;-35.248;149.138;2023-02-11T04:43:43;8.20;;;1.00;;
41532;SDS011;27262;-35.248;149.138;2023-02-11T04:46:13;4.63;;;0.95;;
41532;SDS011;27262;-35.248;149.138;2023-02-11T04:48:44;5.45;;;1.08;;
41532;SDS011;27262;-35.248;149.138;2023-02-11T04:51:14;5.75;;;1.35;;
41532;SDS011;27262;-35.248;149.138;2023-02-11T04:53:45;5.13;;;1.25;;
41532;SDS011;27262;-35.248;149.138;2023-02-11T04:56:15;6.07;;;1.13;;
41532;SDS011;27262;-35.248;149.138;2023-02-11T04:58:46;4.43;;;1.10;;
41532;SDS011;27262;-35.248;149.138;2023-02-11T05:01:16;3.42;;;0.90;;
41532;SDS011;27262;-35.248;149.138;2023-02-11T05:03:46;1.65;;;0.80;;
41532;SDS011;27262;-35.248;149.138;2023-02-11T05:06:17;3.00;;;0.85;;
41532;SDS011;27262;-35.248;149.138;2023-02-11T05:08:48;4.70;;;0.70;;
41532;SDS011;27262;-35.248;149.138;2023-02-11T05:11:20;3.58;;;0.90;;
41532;SDS011;27262;-35.248;149.138;2023-02-11T05:13:51;4.95;;;1.13;;
41532;SDS011;27262;-35.248;149.138;2023-02-11T05:16:22;2.88;;;0.88;;
41532;SDS011;27262;-35.248;149.138;2023-02-11T05:18:53;10.57;;;1.02;;
41532;SDS011;27262;-35.248;149.138;2023-02-11T05:21:24;2.60;;;0.93;;
41532;SDS011;27262;-35.248;149.138;2023-02-11T05:23:55;2.97;;;0.85;;
41532;SDS011;27262;-35.248;149.138;2023-02-11T05:26:26;2.47;;;0.85;;
41532;SDS011;27262;-35.248;149.138;2023-02-11T05:28:56;3.60;;;1.13;;
41532;SDS011;27262;-35.248;149.138;2023-02-11T05:31:27;3.35;;;1.00;;
41532;SDS011;27262;-35.248;149.138;2023-02-11T05:33:57;2.05;;;0.75;;
41532;SDS011;27262;-35.248;149.138;2023-02-11T05:36:27;4.20;;;0.90;;
41532;SDS011;27262;-35.248;149.138;2023-02-11T05:38:59;5.75;;;1.17;;
41532;SDS011;27262;-35.248;149.138;2023-02-11T05:41:29;4.78;;;0.98;;
41532;SDS011;27262;-35.248;149.138;2023-02-11T05:43:59;3.47;;;0.77;;
41532;SDS011;27262;-35.248;149.138;2023-02-11T05:46:30;4.18;;;0.95;;
41532;SDS011;27262;-35.248;149.138;2023-02-11T05:49:00;3.30;;;1.00;;
41532;SDS011;27262;-35.248;149.138;2023-02-11T05:51:30;3.58;;;0.98;;
41532;SDS011;27262;-35.248;149.138;2023-02-11T05:54:01;4.22;;;1.02;;
41532;SDS011;27262;-35.248;149.138;2023-02-11T05:56:31;5.88;;;1.00;;
41532;SDS011;27262;-35.248;149.138;2023-02-11T05:59:02;3.25;;;0.90;;
41532;SDS011;27262;-35.248;149.138;2023-02-11T06:01:32;4.75;;;0.98;;
41532;SDS011;27262;-35.248;149.138;2023-02-11T06:04:02;5.05;;;1.17;;
41532;SDS011;27262;-35.248;149.138;2023-02-11T06:06:32;3.42;;;0.90;;
41532;SDS011;27262;-35.248;149.138;2023-02-11T06:09:03;4.32;;;1.02;;
41532;SDS011;27262;-35.248;149.138;2023-02-11T06:11:33;1.77;;;0.82;;
41532;SDS011;27262;-35.248;149.138;2023-02-11T06:14:04;3.63;;;0.70;;
41532;SDS011;27262;-35.248;149.138;2023-02-11T06:16:34;6.25;;;1.42;;
41532;SDS011;27262;-35.248;149.138;2023-02-11T06:19:05;3.78;;;0.80;;
41532;SDS011;27262;-35.248;149.138;2023-02-11T06:21:35;2.70;;;0.98;;
41532;SDS011;27262;-35.248;149.138;2023-02-11T06:24:10;5.95;;;0.98;;
41532;SDS011;27262;-35.248;149.138;2023-02-11T06:26:45;6.35;;;1.05;;
41532;SDS011;27262;-35.248;149.138;2023-02-11T06:29:15;4.88;;;1.13;;
41532;SDS011;27262;-35.248;149.138;2023-02-11T06:31:45;7.97;;;0.90;;
41532;SDS011;27262;-35.248;149.138;2023-02-11T06:34:16;5.35;;;0.90;;
41532;SDS011;27262;-35.248;149.138;2023-02-11T06:36:46;4.45;;;0.90;;
41532;SDS011;27262;-35.248;149.138;2023-02-11T06:39:16;4.10;;;1.20;;
41532;SDS011;27262;-35.248;149.138;2023-02-11T06:41:47;2.88;;;0.63;;
41532;SDS011;27262;-35.248;149.138;2023-02-11T06:44:17;2.90;;;1.02;;
41532;SDS011;27262;-35.248;149.138;2023-02-11T06:46:47;2.42;;;0.70;;
41532;SDS011;27262;-35.248;149.138;2023-02-11T06:49:17;5.53;;;0.80;;
41532;SDS011;27262;-35.248;149.138;2023-02-11T06:51:48;4.25;;;0.95;;
41532;SDS011;27262;-35.248;149.138;2023-02-11T06:54:18;1.67;;;0.80;;
41532;SDS011;27262;-35.248;149.138;2023-02-11T06:56:48;3.83;;;1.08;;
41532;SDS011;27262;-35.248;149.138;2023-02-11T06:59:19;3.92;;;1.25;;
41532;SDS011;27262;-35.248;149.138;2023-02-11T07:01:49;3.83;;;0.63;;
41532;SDS011;27262;-35.248;149.138;2023-02-11T07:04:19;3.30;;;0.80;;
41532;SDS011;27262;-35.248;149.138;2023-02-11T07:06:50;6.13;;;1.20;;
41532;SDS011;27262;-35.248;149.138;2023-02-11T07:09:20;5.13;;;1.33;;
41532;SDS011;27262;-35.248;149.138;2023-02-11T07:11:50;3.40;;;1.27;;
41532;SDS011;27262;-35.248;149.138;2023-02-11T07:14:21;6.85;;;1.50;;
41532;SDS011;27262;-35.248;149.138;2023-02-11T07:16:51;6.30;;;1.10;;
41532;SDS011;27262;-35.248;149.138;2023-02-11T07:19:21;8.82;;;1.13;;
41532;SDS011;27262;-35.248;149.138;2023-02-11T07:21:52;3.88;;;1.20;;
41532;SDS011;27262;-35.248;149.138;2023-02-11T07:24:22;2.65;;;1.02;;
41532;SDS011;27262;-35.248;149.138;2023-02-11T07:26:53;4.85;;;1.00;;
41532;SDS011;27262;-35.248;149.138;2023-02-11T07:29:23;3.25;;;0.70;;
41532;SDS011;27262;-35.248;149.138;2023-02-11T07:31:53;9.15;;;1.33;;
41532;SDS011;27262;-35.248;149.138;2023-02-11T07:34:23;2.45;;;0.77;;
41532;SDS011;27262;-35.248;149.138;2023-02-11T07:36:54;3.75;;;1.02;;
41532;SDS011;27262;-35.248;149.138;2023-02-11T07:39:24;3.00;;;1.05;;
41532;SDS011;27262;-35.248;149.138;2023-02-11T07:41:57;4.80;;;1.17;;
41532;SDS011;27262;-35.248;149.138;2023-02-11T07:44:28;3.22;;;0.90;;
41532;SDS011;27262;-35.248;149.138;2023-02-11T07:47:00;4.18;;;1.02;;
41532;SDS011;27262;-35.248;149.138;2023-02-11T07:49:31;7.97;;;1.33;;
41532;SDS011;27262;-35.248;149.138;2023-02-11T07:52:01;4.63;;;1.13;;
41532;SDS011;27262;-35.248;149.138;2023-02-11T07:54:31;7.07;;;1.17;;
41532;SDS011;27262;-35.248;149.138;2023-02-11T07:57:02;4.80;;;0.80;;
41532;SDS011;27262;-35.248;149.138;2023-02-11T07:59:33;5.68;;;1.10;;
41532;SDS011;27262;-35.248;149.138;2023-02-11T08:02:03;4.75;;;0.93;;
41532;SDS011;27262;-35.248;149.138;2023-02-11T08:04:33;5.43;;;1.10;;
41532;SDS011;27262;-35.248;149.138;2023-02-11T08:07:04;11.70;;;1.60;;
41532;SDS011;27262;-35.248;149.138;2023-02-11T08:09:34;5.40;;;1.00;;
41532;SDS011;27262;-35.248;149.138;2023-02-11T08:12:05;2.55;;;0.73;;
41532;SDS011;27262;-35.248;149.138;2023-02-11T08:14:36;3.40;;;0.98;;
41532;SDS011;27262;-35.248;149.138;2023-02-11T08:17:06;4.07;;;1.00;;
41532;SDS011;27262;-35.248;149.138;2023-02-11T08:19:37;4.80;;;1.05;;
41532;SDS011;27262;-35.248;149.138;2023-02-11T08:22:07;3.30;;;1.10;;
41532;SDS011;27262;-35.248;149.138;2023-02-11T08:24:38;4.78;;;1.13;;
41532;SDS011;27262;-35.248;149.138;2023-02-11T08:27:09;4.28;;;0.85;;
41532;SDS011;27262;-35.248;149.138;2023-02-11T08:29:39;4.07;;;0.80;;
41532;SDS011;27262;-35.248;149.138;2023-02-11T08:32:10;3.85;;;0.80;;
41532;SDS011;27262;-35.248;149.138;2023-02-11T08:34:40;5.10;;;0.80;;
41532;SDS011;27262;-35.248;149.138;2023-02-11T08:37:11;3.10;;;0.85;;
41532;SDS011;27262;-35.248;149.138;2023-02-11T08:39:42;4.90;;;0.90;;
41532;SDS011;27262;-35.248;149.138;2023-02-11T08:42:15;3.17;;;1.25;;
41532;SDS011;27262;-35.248;149.138;2023-02-11T08:44:45;2.60;;;0.70;;
41532;SDS011;27262;-35.248;149.138;2023-02-11T08:47:16;2.40;;;0.75;;
41532;SDS011;27262;-35.248;149.138;2023-02-11T08:49:47;4.20;;;1.02;;
41532;SDS011;27262;-35.248;149.138;2023-02-11T08:52:17;4.32;;;1.02;;
41532;SDS011;27262;-35.248;149.138;2023-02-11T08:54:48;2.47;;;0.80;;
41532;SDS011;27262;-35.248;149.138;2023-02-11T08:57:19;2.22;;;0.60;;
41532;SDS011;27262;-35.248;149.138;2023-02-11T08:59:49;2.50;;;0.70;;
41532;SDS011;27262;-35.248;149.138;2023-02-11T09:02:19;2.60;;;0.80;;
41532;SDS011;27262;-35.248;149.138;2023-02-11T09:04:51;2.72;;;0.80;;
41532;SDS011;27262;-35.248;149.138;2023-02-11T09:07:21;4.25;;;0.80;;
41532;SDS011;27262;-35.248;149.138;2023-02-11T09:09:52;2.53;;;0.80;;
41532;SDS011;27262;-35.248;149.138;2023-02-11T09:12:22;4.07;;;1.00;;
41532;SDS011;27262;-35.248;149.138;2023-02-11T09:14:52;2.58;;;0.82;;
41532;SDS011;27262;-35.248;149.138;2023-02-11T09:17:22;2.75;;;1.05;;
41532;SDS011;27262;-35.248;149.138;2023-02-11T09:19:53;2.42;;;0.80;;
41532;SDS011;27262;-35.248;149.138;2023-02-11T09:22:24;3.92;;;0.93;;
41532;SDS011;27262;-35.248;149.138;2023-02-11T09:24:54;3.35;;;0.95;;
41532;SDS011;27262;-35.248;149.138;2023-02-11T09:27:24;3.92;;;0.93;;
41532;SDS011;27262;-35.248;149.138;2023-02-11T09:29:55;3.40;;;0.80;;
41532;SDS011;27262;-35.248;149.138;2023-02-11T09:32:25;1.90;;;0.75;;
41532;SDS011;27262;-35.248;149.138;2023-02-11T09:34:55;2.38;;;0.80;;
41532;SDS011;27262;-35.248;149.138;2023-02-11T09:37:25;2.05;;;1.00;;
41532;SDS011;27262;-35.248;149.138;2023-02-11T09:39:56;5.40;;;1.10;;
41532;SDS011;27262;-35.248;149.138;2023-02-11T09:45:11;5.07;;;1.00;;
41532;SDS011;27262;-35.248;149.138;2023-02-11T09:47:53;2.45;;;0.90;;
41532;SDS011;27262;-35.248;149.138;2023-02-11T09:50:36;4.63;;;1.35;;
41532;SDS011;27262;-35.248;149.138;2023-02-11T09:53:14;3.40;;;0.93;;
41532;SDS011;27262;-35.248;149.138;2023-02-11T09:55:50;3.45;;;1.05;;
41532;SDS011;27262;-35.248;149.138;2023-02-11T09:58:33;4.65;;;1.08;;
41532;SDS011;27262;-35.248;149.138;2023-02-11T10:09:10;4.32;;;1.40;;
41532;SDS011;27262;-35.248;149.138;2023-02-11T10:15:05;3.40;;;1.30;;
41532;SDS011;27262;-35.248;149.138;2023-02-11T10:23:24;6.10;;;1.35;;
41532;SDS011;27262;-35.248;149.138;2023-02-11T10:25:59;7.90;;;1.48;;
41532;SDS011;27262;-35.248;149.138;2023-02-11T10:28:33;3.55;;;1.10;;
41532;SDS011;27262;-35.248;149.138;2023-02-11T10:33:57;4.47;;;1.15;;
41532;SDS011;27262;-35.248;149.138;2023-02-11T10:36:33;3.38;;;1.25;;
41532;SDS011;27262;-35.248;149.138;2023-02-11T10:44:57;3.50;;;1.25;;
41532;SDS011;27262;-35.248;149.138;2023-02-11T10:47:33;3.88;;;1.25;;
41532;SDS011;27262;-35.248;149.138;2023-02-11T10:50:28;3.78;;;1.27;;
41532;SDS011;27262;-35.248;149.138;2023-02-11T10:53:17;5.72;;;1.63;;
41532;SDS011;27262;-35.248;149.138;2023-02-11T10:55:50;4.50;;;1.05;;
41532;SDS011;27262;-35.248;149.138;2023-02-11T10:58:24;3.38;;;1.27;;
41532;SDS011;27262;-35.248;149.138;2023-02-11T11:00:58;3.53;;;1.27;;
41532;SDS011;27262;-35.248;149.138;2023-02-11T11:03:39;3.72;;;1.17;;
41532;SDS011;27262;-35.248;149.138;2023-02-11T11:06:16;3.03;;;1.13;;
41532;SDS011;27262;-35.248;149.138;2023-02-11T11:08:59;4.30;;;1.15;;
41532;SDS011;27262;-35.248;149.138;2023-02-11T11:11:29;3.17;;;1.20;;
41532;SDS011;27262;-35.248;149.138;2023-02-11T11:14:00;3.47;;;1.27;;
41532;SDS011;27262;-35.248;149.138;2023-02-11T11:16:32;3.90;;;0.90;;
41532;SDS011;27262;-35.248;149.138;2023-02-11T11:31:57;3.33;;;1.10;;
41532;SDS011;27262;-35.248;149.138;2023-02-11T11:34:35;2.97;;;0.95;;
41532;SDS011;27262;-35.248;149.138;2023-02-11T11:37:18;1.95;;;1.10;;
41532;SDS011;27262;-35.248;149.138;2023-02-11T11:40:07;6.55;;;1.70;;
41532;SDS011;27262;-35.248;149.138;2023-02-11T11:43:03;3.67;;;1.38;;
41532;SDS011;27262;-35.248;149.138;2023-02-11T11:45:33;3.83;;;1.45;;
41532;SDS011;27262;-35.248;149.138;2023-02-11T11:50:56;4.07;;;1.33;;
41532;SDS011;27262;-35.248;149.138;2023-02-11T11:56:16;6.22;;;1.80;;
41532;SDS011;27262;-35.248;149.138;2023-02-11T11:58:55;5.80;;;1.42;;
41532;SDS011;27262;-35.248;149.138;2023-02-11T12:07:16;3.83;;;1.08;;
41532;SDS011;27262;-35.248;149.138;2023-02-11T12:44:57;4.35;;;1.38;;
41532;SDS011;27262;-35.248;149.138;2023-02-11T12:59:09;3.33;;;1.40;;
41532;SDS011;27262;-35.248;149.138;2023-02-11T13:01:46;3.05;;;1.17;;
41532;SDS011;27262;-35.248;149.138;2023-02-11T13:04:24;2.20;;;1.20;;
41532;SDS011;27262;-35.248;149.138;2023-02-11T13:07:14;2.40;;;1.38;;
41532;SDS011;27262;-35.248;149.138;2023-02-11T13:10:04;2.55;;;1.23;;
41532;SDS011;27262;-35.248;149.138;2023-02-11T13:12:51;3.60;;;1.40;;
41532;SDS011;27262;-35.248;149.138;2023-02-11T13:15:42;2.95;;;1.48;;
41532;SDS011;27262;-35.248;149.138;2023-02-11T13:18:23;3.28;;;1.27;;
41532;SDS011;27262;-35.248;149.138;2023-02-11T13:35:26;2.55;;;1.05;;
41532;SDS011;27262;-35.248;149.138;2023-02-11T13:38:01;3.90;;;1.65;;
41532;SDS011;27262;-35.248;149.138;2023-02-11T13:40:41;4.32;;;1.30;;
41532;SDS011;27262;-35.248;149.138;2023-02-11T13:43:22;2.45;;;1.15;;
41532;SDS011;27262;-35.248;149.138;2023-02-11T13:46:07;3.25;;;1.60;;
41532;SDS011;27262;-35.248;149.138;2023-02-11T13:48:47;5.63;;;1.25;;
41532;SDS011;27262;-35.248;149.138;2023-02-11T13:51:36;2.70;;;1.30;;
41532;SDS011;27262;-35.248;149.138;2023-02-11T13:54:17;4.55;;;1.50;;
41532;SDS011;27262;-35.248;149.138;2023-02-11T13:57:14;3.55;;;1.40;;
41532;SDS011;27262;-35.248;149.138;2023-02-11T13:59:45;2.00;;;1.08;;
41532;SDS011;27262;-35.248;149.138;2023-02-11T14:16:18;2.88;;;1.10;;
41532;SDS011;27262;-35.248;149.138;2023-02-11T14:19:03;4.43;;;1.30;;
41532;SDS011;27262;-35.248;149.138;2023-02-11T14:21:37;2.50;;;1.10;;
41532;SDS011;27262;-35.248;149.138;2023-02-11T14:38:31;5.50;;;1.33;;
41532;SDS011;27262;-35.248;149.138;2023-02-11T14:44:29;2.95;;;0.95;;
41532;SDS011;27262;-35.248;149.138;2023-02-11T14:46:59;3.17;;;1.35;;
41532;SDS011;27262;-35.248;149.138;2023-02-11T14:49:30;2.30;;;1.27;;
41532;SDS011;27262;-35.248;149.138;2023-02-11T14:52:23;2.60;;;1.27;;
41532;SDS011;27262;-35.248;149.138;2023-02-11T14:58:06;2.55;;;1.00;;
41532;SDS011;27262;-35.248;149.138;2023-02-11T15:03:37;2.92;;;1.08;;
41532;SDS011;27262;-35.248;149.138;2023-02-11T15:08:50;3.00;;;1.13;;
41532;SDS011;27262;-35.248;149.138;2023-02-11T15:11:24;3.28;;;1.30;;
41532;SDS011;27262;-35.248;149.138;2023-02-11T15:13:57;4.55;;;1.30;;
41532;SDS011;27262;-35.248;149.138;2023-02-11T15:16:40;2.80;;;0.98;;
41532;SDS011;27262;-35.248;149.138;2023-02-11T15:19:18;3.72;;;1.40;;
41532;SDS011;27262;-35.248;149.138;2023-02-11T15:22:00;1.80;;;0.90;;
41532;SDS011;27262;-35.248;149.138;2023-02-11T15:24:35;2.63;;;1.10;;
41532;SDS011;27262;-35.248;149.138;2023-02-11T15:29:44;2.10;;;1.00;;
41532;SDS011;27262;-35.248;149.138;2023-02-11T15:32:20;3.55;;;1.13;;
41532;SDS011;27262;-35.248;149.138;2023-02-11T15:34:52;3.03;;;1.35;;
41532;SDS011;27262;-35.248;149.138;2023-02-11T15:37:25;3.15;;;1.50;;
41532;SDS011;27262;-35.248;149.138;2023-02-11T15:40:15;2.40;;;1.13;;
41532;SDS011;27262;-35.248;149.138;2023-02-11T15:42:52;4.13;;;1.30;;
41532;SDS011;27262;-35.248;149.138;2023-02-11T15:45:37;2.50;;;1.30;;
41532;SDS011;27262;-35.248;149.138;2023-02-11T15:48:15;2.38;;;0.80;;
41532;SDS011;27262;-35.248;149.138;2023-02-11T15:50:50;2.88;;;1.58;;
41532;SDS011;27262;-35.248;149.138;2023-02-11T15:53:38;6.72;;;1.58;;
41532;SDS011;27262;-35.248;149.138;2023-02-11T15:56:12;3.83;;;1.35;;
41532;SDS011;27262;-35.248;149.138;2023-02-11T15:58:47;2.55;;;1.10;;
41532;SDS011;27262;-35.248;149.138;2023-02-11T16:01:27;6.13;;;1.27;;
41532;SDS011;27262;-35.248;149.138;2023-02-11T16:04:02;4.60;;;1.30;;
41532;SDS011;27262;-35.248;149.138;2023-02-11T16:06:40;2.35;;;1.15;;
41532;SDS011;27262;-35.248;149.138;2023-02-11T16:17:08;2.70;;;1.35;;
41532;SDS011;27262;-35.248;149.138;2023-02-11T16:19:43;2.47;;;1.00;;
41532;SDS011;27262;-35.248;149.138;2023-02-11T16:22:16;2.80;;;1.40;;
41532;SDS011;27262;-35.248;149.138;2023-02-11T16:24:57;3.17;;;1.33;;
41532;SDS011;27262;-35.248;149.138;2023-02-11T16:27:32;2.33;;;0.90;;
41532;SDS011;27262;-35.248;149.138;2023-02-11T16:33:09;4.68;;;1.20;;
41532;SDS011;27262;-35.248;149.138;2023-02-11T16:35:40;4.55;;;1.40;;
41532;SDS011;27262;-35.248;149.138;2023-02-11T16:38:15;3.85;;;1.23;;
41532;SDS011;27262;-35.248;149.138;2023-02-11T16:40:51;3.72;;;1.40;;
41532;SDS011;27262;-35.248;149.138;2023-02-11T16:43:22;1.80;;;1.10;;
41532;SDS011;27262;-35.248;149.138;2023-02-11T16:45:52;2.33;;;1.08;;
41532;SDS011;27262;-35.248;149.138;2023-02-11T16:48:22;2.33;;;1.02;;
41532;SDS011;27262;-35.248;149.138;2023-02-11T16:50:53;1.67;;;0.80;;
41532;SDS011;27262;-35.248;149.138;2023-02-11T16:53:24;2.40;;;1.05;;
41532;SDS011;27262;-35.248;149.138;2023-02-11T16:55:54;3.38;;;1.25;;
41532;SDS011;27262;-35.248;149.138;2023-02-11T16:58:25;3.38;;;1.33;;
41532;SDS011;27262;-35.248;149.138;2023-02-11T17:00:55;2.38;;;1.15;;
41532;SDS011;27262;-35.248;149.138;2023-02-11T17:03:26;2.10;;;1.00;;
41532;SDS011;27262;-35.248;149.138;2023-02-11T17:05:56;1.38;;;0.95;;
41532;SDS011;27262;-35.248;149.138;2023-02-11T17:08:30;3.25;;;1.35;;
41532;SDS011;27262;-35.248;149.138;2023-02-11T17:11:01;2.85;;;1.10;;
41532;SDS011;27262;-35.248;149.138;2023-02-11T17:13:32;3.85;;;1.10;;
41532;SDS011;27262;-35.248;149.138;2023-02-11T17:16:03;2.03;;;1.00;;
41532;SDS011;27262;-35.248;149.138;2023-02-11T17:18:36;4.22;;;1.10;;
41532;SDS011;27262;-35.248;149.138;2023-02-11T17:21:07;1.98;;;1.02;;
41532;SDS011;27262;-35.248;149.138;2023-02-11T17:23:38;3.08;;;1.10;;
41532;SDS011;27262;-35.248;149.138;2023-02-11T17:26:08;4.68;;;1.45;;
41532;SDS011;27262;-35.248;149.138;2023-02-11T17:28:39;1.98;;;0.98;;
41532;SDS011;27262;-35.248;149.138;2023-02-11T17:31:09;1.35;;;0.85;;
41532;SDS011;27262;-35.248;149.138;2023-02-11T17:33:39;4.00;;;1.40;;
41532;SDS011;27262;-35.248;149.138;2023-02-11T17:36:10;3.72;;;1.33;;
41532;SDS011;27262;-35.248;149.138;2023-02-11T17:38:40;5.25;;;1.33;;
41532;SDS011;27262;-35.248;149.138;2023-02-11T17:41:10;1.20;;;0.90;;
41532;SDS011;27262;-35.248;149.138;2023-02-11T17:43:41;2.53;;;1.05;;
41532;SDS011;27262;-35.248;149.138;2023-02-11T17:46:11;1.63;;;0.98;;
41532;SDS011;27262;-35.248;149.138;2023-02-11T17:48:42;2.58;;;1.02;;
41532;SDS011;27262;-35.248;149.138;2023-02-11T17:51:26;2.72;;;1.13;;
41532;SDS011;27262;-35.248;149.138;2023-02-11T17:53:59;3.17;;;1.10;;
41532;SDS011;27262;-35.248;149.138;2023-02-11T17:56:32;3.55;;;1.25;;
41532;SDS011;27262;-35.248;149.138;2023-02-11T17:59:04;1.30;;;0.80;;
41532;SDS011;27262;-35.248;149.138;2023-02-11T18:01:36;3.35;;;1.25;;
41532;SDS011;27262;-35.248;149.138;2023-02-11T18:04:09;4.32;;;1.58;;
41532;SDS011;27262;-35.248;149.138;2023-02-11T18:06:43;1.90;;;0.95;;
41532;SDS011;27262;-35.248;149.138;2023-02-11T18:09:14;1.42;;;0.85;;
41532;SDS011;27262;-35.248;149.138;2023-02-11T18:11:48;1.45;;;1.10;;
41532;SDS011;27262;-35.248;149.138;2023-02-11T18:14:20;2.47;;;0.98;;